Time;durP1;ratioP1;P1;durP2;ratioP2;P2;SDS_P1;SDS_P2;PMS_P1;PMS_P2;Temp;Humidity;BMP_temperature;BMP_pressure;BME280_temperature;BME280_humidity;BME280_pressure;Samples;Min_cycle;Max_cycle;Signal;HPM_P1;HPM_P2
2023/10/16 05:01:55;;;;;;;6.82;3.55;;;;;;;;;;4481359;23;20107;-79
2023/10/16 05:04:34;;;;;;;6.78;3.67;;;;;;;;;;4149243;28;20104;-79
2023/10/16 05:06:48;;;;;;;6.60;3.05;;;;;;;;;;4146490;28;20104;-80
2023/10/16 05:08:59;;;;;;;7.63;3.73;;;;;;;;;;4149347;28;20112;-79
2023/10/16 05:13:43;;;;;;;7.07;3.50;;;;;;;;;;4148866;28;20108;-79
2023/10/16 05:18:20;;;;;;;;;;;;;;;;;;4148298;28;20096;-78
2023/10/16 06:14:16;;;;;;;12.75;5.05;;;;;;;;;;4148599;28;20506;-81
2023/10/16 06:16:17;;;;;;;11.68;5.50;;;;;;;;;;4148214;28;20042;-81
2023/10/16 06:18:20;;;;;;;15.43;5.60;;;;;;;;;;4147046;28;20042;-81
2023/10/16 06:20:22;;;;;;;11.73;5.78;;;;;;;;;;4162711;28;20049;-81
2023/10/16 06:22:26;;;;;;;11.48;5.80;;;;;;;;;;4164810;28;20080;-80
2023/10/16 06:24:32;;;;;;;21.77;5.63;;;;;;;;;;4165021;28;20104;-81
2023/10/16 06:26:38;;;;;;;24.88;5.85;;;;;;;;;;4164593;28;20049;-81
2023/10/16 06:28:47;;;;;;;43.83;6.60;;;;;;;;;;4164720;28;20057;-81
2023/10/16 06:30:49;;;;;;;17.70;6.28;;;;;;;;;;4164908;28;20127;-81
2023/10/16 06:32:52;;;;;;;39.13;7.55;;;;;;;;;;4164842;28;20104;-82
2023/10/16 06:34:58;;;;;;;83.88;8.27;;;;;;;;;;4164766;28;20112;-81
2023/10/16 06:37:05;;;;;;;22.90;7.78;;;;;;;;;;4151708;28;20050;-80
2023/10/16 06:39:22;;;;;;;45.25;7.10;;;;;;;;;;4148228;28;20069;-81
2023/10/16 06:41:24;;;;;;;18.73;5.95;;;;;;;;;;4148124;28;20133;-81
2023/10/16 06:43:26;;;;;;;33.35;6.82;;;;;;;;;;4148131;28;20050;-82
2023/10/16 06:45:40;;;;;;;30.60;7.10;;;;;;;;;;4148043;28;20042;-82
2023/10/16 06:47:47;;;;;;;18.75;6.38;;;;;;;;;;4148357;28;20096;-81
2023/10/16 06:49:50;;;;;;;14.43;6.20;;;;;;;;;;4148303;28;20050;-82
2023/10/16 06:51:51;;;;;;;18.05;6.28;;;;;;;;;;4148214;28;20442;-81
2023/10/16 06:53:56;;;;;;;13.20;6.32;;;;;;;;;;4148023;28;20100;-81
2023/10/16 06:55:59;;;;;;;22.98;5.95;;;;;;;;;;4148315;28;20144;-81
2023/10/16 06:58:01;;;;;;;27.30;5.72;;;;;;;;;;4148010;28;20103;-81
2023/10/16 07:00:09;;;;;;;22.50;6.03;;;;;;;;;;4147901;28;20064;-80
2023/10/16 07:02:15;;;;;;;37.17;6.95;;;;;;;;;;4147925;28;20061;-81
2023/10/16 07:04:20;;;;;;;18.95;6.13;;;;;;;;;;4150151;28;20046;-81
2023/10/16 07:06:24;;;;;;;45.38;6.07;;;;;;;;;;4151303;28;20057;-81
2023/10/16 07:08:25;;;;;;;24.88;6.38;;;;;;;;;;4151147;28;20129;-82
2023/10/16 07:10:27;;;;;;;13.95;5.65;;;;;;;;;;4150975;28;20056;-82
2023/10/16 07:12:50;;;;;;;46.33;6.45;;;;;;;;;;4151070;28;20057;-81
2023/10/16 07:14:56;;;;;;;36.58;6.38;;;;;;;;;;4131185;28;20050;-81
2023/10/16 07:16:59;;;;;;;23.33;6.15;;;;;;;;;;4135030;28;20109;-81
2023/10/16 07:19:01;;;;;;;19.52;6.15;;;;;;;;;;4133929;28;20124;-81
2023/10/16 07:21:09;;;;;;;47.03;7.53;;;;;;;;;;4148225;28;20096;-81
2023/10/16 07:23:11;;;;;;;25.52;6.65;;;;;;;;;;4148199;28;20549;-81
2023/10/16 07:25:24;;;;;;;24.63;6.97;;;;;;;;;;4147547;28;20057;-82
2023/10/16 07:27:30;;;;;;;19.35;6.13;;;;;;;;;;4132061;28;20054;-82
2023/10/16 07:29:35;;;;;;;17.38;5.45;;;;;;;;;;4132261;28;20385;-82
2023/10/16 07:31:37;;;;;;;11.27;5.53;;;;;;;;;;4131966;28;20054;-81
2023/10/16 07:33:41;;;;;;;28.00;6.38;;;;;;;;;;4132131;28;20082;-82
2023/10/16 07:35:44;;;;;;;9.85;5.60;;;;;;;;;;4131943;28;20096;-82
2023/10/16 07:37:48;;;;;;;46.72;6.68;;;;;;;;;;4131962;28;20057;-81
2023/10/16 07:39:51;;;;;;;92.57;8.80;;;;;;;;;;4132117;28;20507;-82
2023/10/16 07:41:53;;;;;;;75.90;7.55;;;;;;;;;;4138995;28;20073;-82
2023/10/16 07:43:57;;;;;;;18.50;5.82;;;;;;;;;;4148588;28;20050;-81
2023/10/16 07:46:16;;;;;;;12.63;5.57;;;;;;;;;;4148849;28;20073;-82
2023/10/16 07:48:20;;;;;;;13.52;6.57;;;;;;;;;;4147810;28;20041;-81
2023/10/16 07:50:22;;;;;;;17.05;6.45;;;;;;;;;;4148175;28;20120;-81
2023/10/16 07:52:28;;;;;;;21.70;5.53;;;;;;;;;;4148204;28;20049;-81
2023/10/16 07:54:31;;;;;;;66.72;7.68;;;;;;;;;;4148369;28;20137;-82
2023/10/16 07:56:33;;;;;;;21.77;6.07;;;;;;;;;;4147689;28;20054;-81
2023/10/16 07:58:35;;;;;;;19.40;6.30;;;;;;;;;;4148132;28;20057;-81
2023/10/16 08:00:42;;;;;;;11.73;5.90;;;;;;;;;;4147769;28;20120;-81
2023/10/16 08:02:46;;;;;;;16.10;6.30;;;;;;;;;;4148140;28;20060;-81
2023/10/16 08:04:51;;;;;;;39.40;7.00;;;;;;;;;;4147880;28;20057;-81
2023/10/16 08:06:55;;;;;;;23.27;6.63;;;;;;;;;;4147807;28;20057;-81
2023/10/16 08:11:19;;;;;;;90.03;10.25;;;;;;;;;;4146424;28;20048;-81
2023/10/16 08:13:24;;;;;;;90.72;11.07;;;;;;;;;;4147327;28;20053;-82
2023/10/16 08:15:27;;;;;;;42.35;8.55;;;;;;;;;;4147116;28;20049;-80
2023/10/16 08:17:32;;;;;;;17.10;7.75;;;;;;;;;;4147574;28;20048;-80
2023/10/16 08:19:36;;;;;;;40.53;9.17;;;;;;;;;;4147940;28;20483;-80
2023/10/16 08:21:39;;;;;;;24.30;9.20;;;;;;;;;;4147607;28;20299;-79
2023/10/16 08:23:45;;;;;;;19.00;8.68;;;;;;;;;;4147548;28;20062;-79
2023/10/16 08:25:47;;;;;;;35.85;8.90;;;;;;;;;;4147188;28;20141;-80
2023/10/16 08:27:50;;;;;;;23.65;8.60;;;;;;;;;;4147371;28;20104;-80
2023/10/16 08:29:54;;;;;;;29.48;9.30;;;;;;;;;;4147105;28;20120;-79
2023/10/16 08:32:48;;;;;;;16.83;8.88;;;;;;;;;;4147218;28;20060;-80
2023/10/16 08:34:20;;;;;;;12.50;7.57;;;;;;;;;;4147170;28;20120;-80
2023/10/16 08:36:23;;;;;;;13.35;7.20;;;;;;;;;;4147037;28;20090;-80
2023/10/16 08:38:26;;;;;;;12.13;7.95;;;;;;;;;;4147133;28;20157;-81
2023/10/16 08:40:32;;;;;;;12.35;7.97;;;;;;;;;;4146930;28;20112;-80
2023/10/16 08:42:36;;;;;;;14.45;8.85;;;;;;;;;;4146991;28;20061;-80
2023/10/16 08:44:38;;;;;;;17.77;8.73;;;;;;;;;;4147234;28;20148;-80
2023/10/16 08:46:45;;;;;;;18.40;9.32;;;;;;;;;;4147185;28;20053;-81
2023/10/16 08:48:48;;;;;;;16.13;8.18;;;;;;;;;;4145818;28;20100;-80
2023/10/16 08:50:57;;;;;;;15.32;9.07;;;;;;;;;;4147369;28;20071;-80
2023/10/16 08:53:05;;;;;;;16.98;9.80;;;;;;;;;;4147216;28;20484;-80
2023/10/16 08:55:15;;;;;;;15.20;10.13;;;;;;;;;;4147052;28;20136;-80
2023/10/16 08:57:19;;;;;;;14.20;9.02;;;;;;;;;;4146730;28;20096;-80
2023/10/16 08:59:24;;;;;;;12.60;9.23;;;;;;;;;;4146925;28;20053;-81
2023/10/16 09:01:28;;;;;;;;;;;;;;;;;;4147180;28;20487;-81
2023/10/16 09:03:31;;;;;;;13.43;8.55;;;;;;;;;;4146897;28;20366;-82
2023/10/16 09:05:33;;;;;;;15.60;10.15;;;;;;;;;;4146867;28;20064;-82
2023/10/16 09:07:39;;;;;;;15.70;9.98;;;;;;;;;;4146676;28;20049;-81
2023/10/16 09:09:44;;;;;;;18.15;9.98;;;;;;;;;;4147235;28;20061;-81
2023/10/16 09:11:49;;;;;;;16.00;8.98;;;;;;;;;;4146814;28;20088;-82
2023/10/16 09:13:51;;;;;;;16.48;9.45;;;;;;;;;;4144742;28;20104;-81
2023/10/16 09:15:53;;;;;;;13.70;9.18;;;;;;;;;;4147013;28;20479;-80
2023/10/16 09:17:56;;;;;;;13.15;8.85;;;;;;;;;;4146626;28;20431;-81
2023/10/16 09:19:58;;;;;;;14.70;8.75;;;;;;;;;;4146620;28;20104;-81
2023/10/16 09:22:00;;;;;;;13.55;8.45;;;;;;;;;;4146621;28;20049;-81
2023/10/16 09:24:03;;;;;;;11.32;7.32;;;;;;;;;;4146638;28;20116;-81
2023/10/16 09:26:07;;;;;;;9.85;7.22;;;;;;;;;;4146155;28;20105;-82
2023/10/16 09:28:16;;;;;;;11.70;6.45;;;;;;;;;;4146601;28;20495;-79
2023/10/16 09:30:20;;;;;;;19.80;7.47;;;;;;;;;;4146020;28;20041;-79
2023/10/16 09:32:27;;;;;;;16.23;7.03;;;;;;;;;;4146395;28;20054;-80
2023/10/16 09:34:30;;;;;;;14.48;7.25;;;;;;;;;;4146836;28;20454;-80
2023/10/16 09:36:36;;;;;;;14.75;6.65;;;;;;;;;;4146357;28;20081;-80
2023/10/16 09:38:42;;;;;;;17.05;7.32;;;;;;;;;;4146402;28;20407;-80
2023/10/16 09:40:45;;;;;;;16.42;7.97;;;;;;;;;;4146498;28;20073;-79
2023/10/16 09:42:55;;;;;;;15.60;7.47;;;;;;;;;;4146606;28;20527;-79
2023/10/16 09:45:06;;;;;;;14.77;7.15;;;;;;;;;;4146504;28;20511;-85
2023/10/16 09:47:25;;;;;;;12.20;7.13;;;;;;;;;;4146389;28;20076;-80
2023/10/16 09:49:28;;;;;;;16.10;7.80;;;;;;;;;;4146081;28;20050;-79
2023/10/16 09:51:31;;;;;;;19.15;8.57;;;;;;;;;;4146328;28;20046;-79
2023/10/16 09:53:33;;;;;;;16.10;8.43;;;;;;;;;;4146261;28;20061;-79
2023/10/16 09:55:38;;;;;;;12.90;7.35;;;;;;;;;;4145836;28;20058;-77
2023/10/16 09:57:44;;;;;;;12.73;7.32;;;;;;;;;;4160225;28;20046;-77
2023/10/16 09:59:47;;;;;;;12.43;7.35;;;;;;;;;;4162673;28;20438;-77
2023/10/16 10:01:51;;;;;;;12.25;7.18;;;;;;;;;;4162097;28;20057;-80
2023/10/16 10:03:55;;;;;;;13.00;7.38;;;;;;;;;;4162548;28;20479;-80
2023/10/16 10:06:08;;;;;;;10.60;7.03;;;;;;;;;;4162600;28;20132;-80
2023/10/16 10:08:17;;;;;;;10.10;6.53;;;;;;;;;;4162518;28;20049;-81
2023/10/16 10:12:43;;;;;;;16.33;7.63;;;;;;;;;;4150463;28;20128;-81
2023/10/16 10:15:01;;;;;;;11.35;7.20;;;;;;;;;;4155643;28;20111;-81
2023/10/16 10:17:04;;;;;;;12.77;7.07;;;;;;;;;;4162202;28;20057;-82
2023/10/16 10:19:11;;;;;;;10.48;6.85;;;;;;;;;;4162178;28;20046;-81
2023/10/16 10:21:27;;;;;;;14.20;7.20;;;;;;;;;;4148523;28;20427;-84
2023/10/16 10:23:32;;;;;;;11.13;6.20;;;;;;;;;;4145852;28;20494;-82
2023/10/16 10:25:37;;;;;;;10.15;6.25;;;;;;;;;;4145175;28;20064;-80
2023/10/16 10:27:41;;;;;;;11.13;6.25;;;;;;;;;;4144694;28;20054;-80
2023/10/16 10:29:48;;;;;;;10.98;6.05;;;;;;;;;;4161907;28;20507;-80
2023/10/16 10:31:51;;;;;;;11.32;6.30;;;;;;;;;;4162041;28;20081;-82
2023/10/16 10:33:57;;;;;;;11.50;6.13;;;;;;;;;;4145978;28;20128;-81
2023/10/16 10:36:17;;;;;;;;;;;;;;;;;;4146556;28;20395;-82
2023/10/16 10:38:24;;;;;;;10.32;6.00;;;;;;;;;;4147056;28;19932;-82
2023/10/16 10:40:33;;;;;;;15.30;6.50;;;;;;;;;;4149123;28;20137;-83
2023/10/16 10:42:45;;;;;;;9.18;5.78;;;;;;;;;;4149072;28;20050;-81
2023/10/16 10:44:58;;;;;;;8.60;5.55;;;;;;;;;;4148930;28;20065;-81
2023/10/16 10:47:17;;;;;;;10.77;5.47;;;;;;;;;;4133007;28;20061;-80
2023/10/16 10:49:19;;;;;;;11.23;5.10;;;;;;;;;;4146046;28;20485;-81
2023/10/16 10:51:21;;;;;;;7.78;5.00;;;;;;;;;;4149697;28;20446;-80
2023/10/16 10:53:24;;;;;;;9.13;5.03;;;;;;;;;;4149213;28;20054;-80
2023/10/16 10:55:27;;;;;;;9.32;4.63;;;;;;;;;;4148991;28;20109;-79
2023/10/16 10:57:28;;;;;;;9.85;4.93;;;;;;;;;;4148835;28;20073;-80
2023/10/16 10:59:39;;;;;;;8.43;4.18;;;;;;;;;;4149004;28;20058;-81
2023/10/16 11:01:51;;;;;;;6.32;3.70;;;;;;;;;;4148289;28;20054;-80
2023/10/16 11:03:55;;;;;;;6.93;3.20;;;;;;;;;;4148365;28;20076;-81
2023/10/16 11:05:58;;;;;;;6.47;2.78;;;;;;;;;;4147783;28;20426;-81
2023/10/16 11:08:25;;;;;;;9.38;3.67;;;;;;;;;;4152750;28;20107;-81
2023/10/16 11:10:27;;;;;;;6.78;3.53;;;;;;;;;;4148673;28;20125;-80
2023/10/16 11:12:30;;;;;;;6.68;3.30;;;;;;;;;;4148503;28;20057;-81
2023/10/16 11:14:36;;;;;;;5.75;3.10;;;;;;;;;;4146467;28;20045;-81
2023/10/16 11:16:43;;;;;;;5.85;2.72;;;;;;;;;;4148526;28;20088;-82
2023/10/16 11:18:59;;;;;;;9.90;2.88;;;;;;;;;;4148452;28;20576;-81
2023/10/16 11:21:07;;;;;;;7.32;2.53;;;;;;;;;;4148632;28;20053;-80
2023/10/16 11:23:12;;;;;;;7.97;2.50;;;;;;;;;;4155529;28;20089;-81
2023/10/16 11:25:16;;;;;;;8.73;2.78;;;;;;;;;;4164667;28;20048;-81
2023/10/16 11:27:18;;;;;;;6.00;2.53;;;;;;;;;;4164665;28;20053;-81
2023/10/16 11:29:21;;;;;;;4.88;2.30;;;;;;;;;;4164827;28;20119;-80
2023/10/16 11:31:24;;;;;;;5.00;1.90;;;;;;;;;;4164824;28;20391;-79
2023/10/16 11:33:26;;;;;;;4.78;2.00;;;;;;;;;;4164667;28;20045;-79
2023/10/16 11:35:34;;;;;;;5.97;2.15;;;;;;;;;;4164562;28;20049;-79
2023/10/16 11:37:39;;;;;;;4.45;2.00;;;;;;;;;;4164308;28;20402;-79
2023/10/16 11:39:44;;;;;;;5.85;2.45;;;;;;;;;;4164913;28;20080;-79
2023/10/16 11:41:46;;;;;;;5.10;1.98;;;;;;;;;;4164611;28;20145;-79
2023/10/16 11:43:51;;;;;;;7.32;1.90;;;;;;;;;;4164338;28;20050;-79
2023/10/16 11:45:57;;;;;;;7.00;1.65;;;;;;;;;;4161706;28;20491;-79
2023/10/16 11:48:20;;;;;;;11.18;2.33;;;;;;;;;;4147940;28;20054;-80
2023/10/16 11:50:38;;;;;;;8.57;2.10;;;;;;;;;;4147578;28;20065;-80
2023/10/16 11:52:42;;;;;;;10.00;2.15;;;;;;;;;;4148324;28;20515;-80
2023/10/16 11:54:46;;;;;;;7.78;2.08;;;;;;;;;;4147866;28;20061;-80
2023/10/16 11:56:51;;;;;;;8.02;1.85;;;;;;;;;;4147790;28;20076;-79
2023/10/16 11:58:55;;;;;;;8.10;2.10;;;;;;;;;;4148660;28;20053;-80
2023/10/16 12:00:57;;;;;;;7.57;1.60;;;;;;;;;;4163696;28;20065;-80
2023/10/16 12:02:59;;;;;;;5.90;1.20;;;;;;;;;;4164249;28;20049;-80
2023/10/16 12:05:05;;;;;;;5.18;1.40;;;;;;;;;;4163699;28;20063;-80
2023/10/16 12:07:08;;;;;;;15.95;2.80;;;;;;;;;;4147425;28;20148;-79
2023/10/16 12:09:19;;;;;;;8.23;1.65;;;;;;;;;;4147589;28;20046;-78
2023/10/16 12:11:21;;;;;;;5.35;1.50;;;;;;;;;;4147772;28;20419;-79
2023/10/16 12:13:23;;;;;;;13.98;2.40;;;;;;;;;;4146526;28;20073;-77
2023/10/16 12:15:26;;;;;;;10.57;2.30;;;;;;;;;;4147850;28;20054;-78
2023/10/16 12:17:28;;;;;;;15.27;2.90;;;;;;;;;;4147597;28;20056;-77
2023/10/16 12:19:30;;;;;;;8.75;1.90;;;;;;;;;;4147636;28;20076;-76
2023/10/16 12:21:32;;;;;;;6.85;1.60;;;;;;;;;;4147195;28;20054;-77
2023/10/16 12:23:36;;;;;;;5.68;1.55;;;;;;;;;;4160914;28;20145;-77
2023/10/16 12:25:40;;;;;;;4.10;1.42;;;;;;;;;;4163388;28;20077;-77
2023/10/16 12:27:42;;;;;;;5.65;1.55;;;;;;;;;;4163686;28;20099;-77
2023/10/16 12:29:45;;;;;;;12.88;2.83;;;;;;;;;;4151740;28;20056;-77
2023/10/16 12:31:48;;;;;;;9.25;1.98;;;;;;;;;;4159077;28;20060;-77
2023/10/16 12:33:51;;;;;;;7.88;2.08;;;;;;;;;;4163838;28;20053;-77
2023/10/16 12:35:55;;;;;;;12.43;2.30;;;;;;;;;;4151507;28;20070;-77
2023/10/16 12:37:59;;;;;;;8.85;1.65;;;;;;;;;;4146997;28;20042;-77
2023/10/16 12:40:24;;;;;;;12.63;2.67;;;;;;;;;;4146934;28;20053;-76
2023/10/16 12:42:26;;;;;;;10.73;2.20;;;;;;;;;;4146999;28;20048;-77
2023/10/16 12:44:28;;;;;;;17.80;2.47;;;;;;;;;;4147011;28;20080;-77
2023/10/16 12:46:32;;;;;;;13.88;2.55;;;;;;;;;;4146743;28;20053;-77
2023/10/16 12:48:34;;;;;;;12.35;2.35;;;;;;;;;;4146778;28;20058;-77
2023/10/16 12:50:37;;;;;;;23.10;3.30;;;;;;;;;;4146236;28;20049;-77
2023/10/16 12:52:42;;;;;;;22.70;3.33;;;;;;;;;;4130774;28;20101;-77
2023/10/16 12:54:45;;;;;;;26.27;3.20;;;;;;;;;;4134867;28;20049;-78
2023/10/16 12:56:48;;;;;;;24.00;3.58;;;;;;;;;;4146918;28;20112;-78
2023/10/16 12:58:51;;;;;;;11.52;2.22;;;;;;;;;;4147105;28;20057;-77
2023/10/16 13:00:57;;;;;;;13.88;2.22;;;;;;;;;;4145886;28;20054;-77
2023/10/16 13:03:00;;;;;;;5.47;1.55;;;;;;;;;;4146516;28;20053;-77
2023/10/16 13:05:02;;;;;;;3.25;1.23;;;;;;;;;;4147684;28;20046;-77
2023/10/16 13:07:04;;;;;;;3.47;1.40;;;;;;;;;;4163034;28;20057;-77
2023/10/16 13:09:14;;;;;;;5.68;1.35;;;;;;;;;;4163294;28;20045;-77
2023/10/16 13:11:17;;;;;;;9.45;1.65;;;;;;;;;;4148816;28;20454;-79
2023/10/16 13:13:23;;;;;;;3.97;1.13;;;;;;;;;;4147144;28;20047;-77
2023/10/16 13:15:25;;;;;;;;;;;;;;;;;;4147389;28;20050;-80
2023/10/16 13:17:28;;;;;;;9.57;1.70;;;;;;;;;;4147114;28;19921;-79
2023/10/16 13:19:31;;;;;;;6.25;1.63;;;;;;;;;;4147275;28;20372;-76
2023/10/16 13:21:33;;;;;;;4.97;1.40;;;;;;;;;;4147097;28;20447;-80
2023/10/16 13:23:37;;;;;;;5.13;1.42;;;;;;;;;;4146493;28;20050;-81
2023/10/16 13:25:41;;;;;;;6.45;1.48;;;;;;;;;;4146647;28;20430;-80
2023/10/16 13:27:44;;;;;;;6.18;1.58;;;;;;;;;;4146908;28;20344;-81
2023/10/16 13:29:46;;;;;;;3.85;1.20;;;;;;;;;;4146912;28;20434;-80
2023/10/16 13:31:53;;;;;;;6.05;1.30;;;;;;;;;;4146619;28;20049;-80
2023/10/16 13:33:55;;;;;;;5.32;1.40;;;;;;;;;;4146808;28;20053;-80
2023/10/16 13:35:58;;;;;;;4.80;1.50;;;;;;;;;;4146792;28;20054;-81
2023/10/16 13:38:04;;;;;;;4.57;1.30;;;;;;;;;;4146236;28;20465;-80
2023/10/16 13:40:15;;;;;;;5.13;1.30;;;;;;;;;;4146935;28;20124;-80
2023/10/16 13:42:20;;;;;;;7.15;1.70;;;;;;;;;;4146911;28;20076;-80
2023/10/16 13:44:24;;;;;;;9.93;1.60;;;;;;;;;;4146854;28;20446;-80
2023/10/16 13:46:26;;;;;;;6.15;1.25;;;;;;;;;;4146710;28;20384;-80
2023/10/16 13:48:31;;;;;;;8.05;1.50;;;;;;;;;;4146648;28;20073;-81
2023/10/16 13:50:34;;;;;;;4.18;1.30;;;;;;;;;;4146281;28;20071;-81
2023/10/16 13:52:37;;;;;;;6.07;1.55;;;;;;;;;;4146671;28;20451;-81
2023/10/16 13:54:41;;;;;;;5.38;1.58;;;;;;;;;;4146693;28;20056;-82
2023/10/16 13:56:45;;;;;;;8.02;1.85;;;;;;;;;;4146472;28;20050;-81
2023/10/16 13:58:49;;;;;;;8.00;1.85;;;;;;;;;;4146636;28;20503;-81
2023/10/16 14:00:51;;;;;;;6.80;1.60;;;;;;;;;;4146241;28;20054;-81
2023/10/16 14:02:53;;;;;;;27.27;3.40;;;;;;;;;;4146736;28;20053;-82
2023/10/16 14:04:58;;;;;;;16.95;2.00;;;;;;;;;;4146160;28;20053;-81
2023/10/16 14:07:00;;;;;;;9.82;2.17;;;;;;;;;;4146786;28;20042;-81
2023/10/16 14:09:10;;;;;;;10.18;1.92;;;;;;;;;;4146289;28;20521;-81
2023/10/16 14:11:13;;;;;;;9.32;1.70;;;;;;;;;;4146514;28;20476;-83
2023/10/16 14:13:19;;;;;;;4.93;1.40;;;;;;;;;;4145525;28;20092;-81
2023/10/16 14:15:25;;;;;;;5.50;1.70;;;;;;;;;;4144313;28;20046;-80
2023/10/16 14:17:37;;;;;;;6.63;1.65;;;;;;;;;;4146280;28;20054;-80
2023/10/16 14:19:40;;;;;;;6.75;1.50;;;;;;;;;;4146511;28;20049;-80
2023/10/16 14:21:44;;;;;;;11.85;1.75;;;;;;;;;;4146355;28;20482;-79
2023/10/16 14:23:46;;;;;;;5.32;1.35;;;;;;;;;;4146447;28;20400;-80
2023/10/16 14:25:49;;;;;;;3.28;0.95;;;;;;;;;;4145661;28;20116;-80
2023/10/16 14:27:51;;;;;;;4.88;1.00;;;;;;;;;;4146067;28;20069;-80
2023/10/16 14:29:59;;;;;;;4.70;1.20;;;;;;;;;;4146169;28;20472;-80
2023/10/16 14:32:02;;;;;;;8.43;1.70;;;;;;;;;;4146393;28;20042;-80
2023/10/16 14:34:05;;;;;;;6.07;1.60;;;;;;;;;;4145780;28;20115;-82
2023/10/16 14:36:09;;;;;;;10.77;1.75;;;;;;;;;;4146698;28;20104;-80
2023/10/16 14:38:16;;;;;;;4.30;1.15;;;;;;;;;;4145068;28;20057;-79
2023/10/16 14:40:20;;;;;;;6.38;1.20;;;;;;;;;;4152429;28;20492;-79
2023/10/16 14:42:24;;;;;;;4.22;1.20;;;;;;;;;;4146011;28;20049;-79
2023/10/16 14:44:27;;;;;;;3.13;1.10;;;;;;;;;;4145923;28;20050;-80
2023/10/16 14:46:30;;;;;;;3.88;1.15;;;;;;;;;;4145467;28;20053;-80
2023/10/16 14:48:33;;;;;;;4.05;1.20;;;;;;;;;;4145973;28;20045;-79
2023/10/16 14:50:35;;;;;;;3.75;1.30;;;;;;;;;;4145767;28;20104;-79
2023/10/16 14:52:38;;;;;;;4.90;1.20;;;;;;;;;;4145542;28;20074;-79
2023/10/16 14:54:42;;;;;;;3.50;1.70;;;;;;;;;;4145884;28;20108;-79
2023/10/16 14:56:44;;;;;;;3.70;1.73;;;;;;;;;;4145924;28;20089;-80
2023/10/16 14:58:49;;;;;;;3.05;1.95;;;;;;;;;;4138340;28;20093;-80
2023/10/16 15:00:50;;;;;;;11.18;2.97;;;;;;;;;;4129462;28;20094;-80
2023/10/16 15:02:53;;;;;;;4.82;2.22;;;;;;;;;;4129704;28;20072;-80
2023/10/16 15:04:55;;;;;;;7.78;5.07;;;;;;;;;;4129614;28;20117;-80
2023/10/16 15:07:04;;;;;;;7.93;1.80;;;;;;;;;;4138410;28;20083;-80
2023/10/16 15:09:09;;;;;;;4.88;1.20;;;;;;;;;;4145922;28;20081;-80
2023/10/16 15:11:13;;;;;;;5.53;1.10;;;;;;;;;;4145741;28;20093;-80
2023/10/16 15:13:16;;;;;;;8.43;1.83;;;;;;;;;;4145548;28;20547;-79
2023/10/16 15:15:18;;;;;;;6.15;1.33;;;;;;;;;;4143865;28;20050;-79
2023/10/16 15:17:21;;;;;;;4.70;1.00;;;;;;;;;;4145770;28;20049;-80
2023/10/16 15:19:26;;;;;;;5.93;1.00;;;;;;;;;;4145697;28;20589;-80
2023/10/16 15:21:28;;;;;;;3.40;0.90;;;;;;;;;;4145514;28;20132;-80
2023/10/16 15:23:31;;;;;;;4.65;1.13;;;;;;;;;;4145139;28;20054;-80
2023/10/16 15:25:34;;;;;;;5.50;1.10;;;;;;;;;;4145814;28;20081;-80
2023/10/16 15:27:38;;;;;;;5.05;0.95;;;;;;;;;;4144984;28;20056;-79
2023/10/16 15:29:40;;;;;;;5.53;1.00;;;;;;;;;;4148617;28;20050;-78
2023/10/16 15:31:43;;;;;;;9.55;1.27;;;;;;;;;;4148209;28;20050;-78
2023/10/16 15:33:44;;;;;;;5.32;1.20;;;;;;;;;;4148603;28;20049;-79
2023/10/16 15:35:48;;;;;;;5.57;1.10;;;;;;;;;;4148048;28;20077;-78
2023/10/16 15:37:50;;;;;;;6.13;0.98;;;;;;;;;;4148354;28;20129;-79
2023/10/16 15:39:52;;;;;;;2.35;0.88;;;;;;;;;;4148396;28;20125;-78
2023/10/16 15:41:54;;;;;;;1.83;0.70;;;;;;;;;;4145001;28;20045;-78
2023/10/16 16:15:49;;;;;;;4.88;0.73;;;;;;;;;;4210181;27;20497;-79
2023/10/16 16:17:51;;;;;;;3.95;0.90;;;;;;;;;;4198795;28;20162;-80
2023/10/16 16:19:55;;;;;;;2.05;0.75;;;;;;;;;;4193884;28;20050;-81
2023/10/16 16:21:57;;;;;;;1.85;0.70;;;;;;;;;;4180573;28;20049;-78
2023/10/16 16:23:59;;;;;;;2.15;0.70;;;;;;;;;;4193707;28;20079;-81
2023/10/16 16:26:02;;;;;;;4.10;1.50;;;;;;;;;;4201208;28;20460;-81
2023/10/16 16:28:05;;;;;;;2.67;0.90;;;;;;;;;;4194637;28;20045;-82
2023/10/16 16:30:08;;;;;;;2.47;1.10;;;;;;;;;;4204095;28;20492;-80
2023/10/16 16:32:12;;;;;;;2.33;0.90;;;;;;;;;;4193297;28;20041;-81
2023/10/16 16:34:14;;;;;;;3.63;1.30;;;;;;;;;;4184981;28;20490;-81
2023/10/16 16:36:17;;;;;;;5.20;1.23;;;;;;;;;;4182898;28;20045;-81
2023/10/16 16:38:19;;;;;;;3.45;0.90;;;;;;;;;;4203745;28;20052;-81
2023/10/16 16:40:23;;;;;;;4.30;0.90;;;;;;;;;;4189824;28;20052;-82
2023/10/16 16:42:24;;;;;;;2.10;0.70;;;;;;;;;;4179515;28;20456;-81
2023/10/16 16:44:27;;;;;;;2.42;0.60;;;;;;;;;;4182778;28;20052;-83
2023/10/16 16:46:29;;;;;;;1.63;0.60;;;;;;;;;;4177460;28;20095;-82
2023/10/16 16:48:33;;;;;;;2.22;0.75;;;;;;;;;;4176786;28;20045;-81
2023/10/16 16:50:36;;;;;;;3.45;0.73;;;;;;;;;;4182602;28;20645;-82
2023/10/16 16:52:39;;;;;;;2.78;0.90;;;;;;;;;;4176931;28;20060;-82
2023/10/16 16:54:41;;;;;;;2.35;0.88;;;;;;;;;;4190795;28;20041;-81
2023/10/16 16:56:43;;;;;;;2.05;0.70;;;;;;;;;;4187078;28;20051;-84
2023/10/16 16:58:45;;;;;;;1.75;0.70;;;;;;;;;;4185347;28;20402;-82
2023/10/16 17:00:47;;;;;;;3.25;0.80;;;;;;;;;;4183710;28;20053;-82
2023/10/16 17:02:50;;;;;;;2.78;0.50;;;;;;;;;;4187547;28;20090;-82
2023/10/16 17:04:54;;;;;;;1.65;0.60;;;;;;;;;;4193542;28;20048;-82
2023/10/16 17:06:59;;;;;;;1.73;0.60;;;;;;;;;;4208917;28;20083;-81
2023/10/16 17:09:02;;;;;;;2.85;0.70;;;;;;;;;;4187950;28;20551;-79
2023/10/16 17:11:04;;;;;;;2.63;0.70;;;;;;;;;;4193012;28;20052;-81
2023/10/16 17:13:06;;;;;;;2.40;0.60;;;;;;;;;;4205219;28;20590;-79
2023/10/16 17:15:11;;;;;;;2.03;0.70;;;;;;;;;;4206456;28;20056;-79
2023/10/16 17:17:14;;;;;;;3.45;0.85;;;;;;;;;;4202104;28;20578;-79
2023/10/16 17:19:16;;;;;;;3.70;0.93;;;;;;;;;;4192541;28;20619;-78
2023/10/16 17:21:20;;;;;;;2.65;0.80;;;;;;;;;;4185566;28;20057;-79
2023/10/16 17:23:22;;;;;;;2.70;0.80;;;;;;;;;;4178770;28;20049;-79
2023/10/16 17:25:25;;;;;;;1.95;0.90;;;;;;;;;;4185308;28;20049;-79
2023/10/16 17:27:27;;;;;;;2.03;0.80;;;;;;;;;;4165329;28;20080;-79
2023/10/16 17:29:29;;;;;;;6.03;1.10;;;;;;;;;;4181271;28;20049;-81
2023/10/16 17:31:32;;;;;;;3.10;1.27;;;;;;;;;;4168155;28;20430;-76
2023/10/16 17:33:34;;;;;;;6.38;1.00;;;;;;;;;;4177698;28;20553;-79
2023/10/16 17:35:38;;;;;;;2.13;0.85;;;;;;;;;;4172917;28;20098;-79
2023/10/16 17:37:41;;;;;;;2.38;0.93;;;;;;;;;;4174491;28;20057;-77
2023/10/16 17:39:45;;;;;;;5.38;1.10;;;;;;;;;;4181384;28;20048;-77
2023/10/16 17:41:48;;;;;;;2.45;1.00;;;;;;;;;;4179149;28;20478;-79
2023/10/16 17:43:50;;;;;;;4.55;1.30;;;;;;;;;;4177715;28;20772;-77
2023/10/16 17:45:53;;;;;;;3.88;1.00;;;;;;;;;;4178116;28;20045;-80
2023/10/16 17:47:55;;;;;;;3.47;1.17;;;;;;;;;;4178452;28;20049;-78
2023/10/16 17:49:58;;;;;;;2.80;1.10;;;;;;;;;;4170652;28;20050;-79
2023/10/16 17:52:00;;;;;;;3.30;1.20;;;;;;;;;;4181514;28;20052;-79
2023/10/16 17:54:08;;;;;;;6.40;1.10;;;;;;;;;;4179542;28;20110;-79
2023/10/16 17:56:12;;;;;;;3.40;1.30;;;;;;;;;;4182705;28;20118;-79
2023/10/16 17:58:14;;;;;;;2.67;1.08;;;;;;;;;;4179233;28;20057;-79
2023/10/16 18:00:16;;;;;;;4.65;1.35;;;;;;;;;;4174384;28;20045;-79
2023/10/16 18:02:20;;;;;;;4.40;1.48;;;;;;;;;;4180469;28;20049;-78
2023/10/16 18:04:23;;;;;;;2.45;1.10;;;;;;;;;;4177132;28;20095;-77
2023/10/16 18:06:27;;;;;;;3.63;1.55;;;;;;;;;;4171591;28;20141;-77
2023/10/16 18:08:29;;;;;;;3.47;1.50;;;;;;;;;;4173340;28;20084;-77
2023/10/16 18:10:38;;;;;;;4.28;1.70;;;;;;;;;;4178129;28;20129;-78
2023/10/16 18:12:42;;;;;;;4.45;1.80;;;;;;;;;;4163828;28;20124;-78
2023/10/16 18:14:46;;;;;;;3.17;1.65;;;;;;;;;;4171839;28;20049;-79
2023/10/16 18:16:48;;;;;;;6.85;2.00;;;;;;;;;;4174322;28;20055;-79
2023/10/16 18:18:50;;;;;;;5.95;2.50;;;;;;;;;;4176495;28;20099;-77
2023/10/16 18:20:53;;;;;;;3.85;2.13;;;;;;;;;;4180518;28;20126;-77
2023/10/16 18:22:55;;;;;;;5.15;2.30;;;;;;;;;;4179691;28;20115;-76
2023/10/16 18:24:57;;;;;;;6.03;2.20;;;;;;;;;;4180070;28;20065;-78
2023/10/16 18:27:03;;;;;;;5.78;2.08;;;;;;;;;;4180185;28;20167;-79
2023/10/16 18:29:05;;;;;;;5.80;2.72;;;;;;;;;;4166175;28;20057;-78
2023/10/16 18:31:08;;;;;;;4.88;2.33;;;;;;;;;;4161656;28;20061;-79
2023/10/16 18:33:11;;;;;;;5.78;1.92;;;;;;;;;;4178283;28;20056;-78
2023/10/16 18:35:15;;;;;;;4.65;2.05;;;;;;;;;;4178784;28;20096;-77
2023/10/16 18:37:18;;;;;;;4.80;2.30;;;;;;;;;;4176900;28;20505;-78
2023/10/16 18:39:20;;;;;;;6.15;2.42;;;;;;;;;;4177027;28;20045;-77
2023/10/16 18:41:24;;;;;;;5.40;1.98;;;;;;;;;;4187864;28;20414;-79
2023/10/16 18:43:27;;;;;;;5.68;2.35;;;;;;;;;;4183917;28;20431;-79
2023/10/16 18:45:29;;;;;;;4.97;2.17;;;;;;;;;;4171208;28;20048;-79
2023/10/16 18:47:31;;;;;;;7.03;2.00;;;;;;;;;;4168685;28;20136;-77
2023/10/16 18:49:35;;;;;;;5.50;2.47;;;;;;;;;;4177649;28;20065;-77
2023/10/16 18:51:39;;;;;;;4.00;2.10;;;;;;;;;;4167826;28;20494;-79
2023/10/16 18:53:41;;;;;;;5.60;2.33;;;;;;;;;;4161652;28;20063;-78
2023/10/16 18:55:43;;;;;;;4.28;2.00;;;;;;;;;;4170566;28;20414;-79
2023/10/16 18:57:45;;;;;;;3.60;2.03;;;;;;;;;;4179169;28;20110;-77
2023/10/16 18:59:50;;;;;;;3.97;2.17;;;;;;;;;;4177639;28;20053;-77